sensor_id;sensor_type;location;lat;lon;timestamp;pressure;altitude;pressure_sealevel;temperature;humidity
60852;BME280;48553;50.766;2.900;2023-10-31T00:02:00;99151.75;;;10.79;100.00
60852;BME280;48553;50.766;2.900;2023-10-31T00:05:00;99154.09;;;10.77;100.00
60852;BME280;48553;50.766;2.900;2023-10-31T00:08:01;99169.72;;;10.76;100.00
60852;BME280;48553;50.766;2.900;2023-10-31T00:11:01;99175.19;;;10.76;100.00
60852;BME280;48553;50.766;2.900;2023-10-31T00:14:02;99185.38;;;10.76;100.00
60852;BME280;48553;50.766;2.900;2023-10-31T00:17:03;99179.47;;;10.74;100.00
60852;BME280;48553;50.766;2.900;2023-10-31T00:20:03;99183.03;;;10.74;100.00
60852;BME280;48553;50.766;2.900;2023-10-31T00:23:05;99186.91;;;10.73;100.00
60852;BME280;48553;50.766;2.900;2023-10-31T00:26:05;99184.16;;;10.70;100.00
60852;BME280;48553;50.766;2.900;2023-10-31T00:29:06;99195.91;;;10.70;100.00
60852;BME280;48553;50.766;2.900;2023-10-31T00:32:06;99203.28;;;10.66;100.00
60852;BME280;48553;50.766;2.900;2023-10-31T00:35:07;99200.53;;;10.66;100.00
60852;BME280;48553;50.766;2.900;2023-10-31T00:38:07;99207.97;;;10.65;100.00
60852;BME280;48553;50.766;2.900;2023-10-31T00:41:08;99217.75;;;10.66;100.00
60852;BME280;48553;50.766;2.900;2023-10-31T00:44:08;99214.59;;;10.64;100.00
60852;BME280;48553;50.766;2.900;2023-10-31T00:47:09;99220.47;;;10.63;100.00
60852;BME280;48553;50.766;2.900;2023-10-31T00:50:09;99228.69;;;10.63;100.00
60852;BME280;48553;50.766;2.900;2023-10-31T00:53:09;99224.38;;;10.62;100.00
60852;BME280;48553;50.766;2.900;2023-10-31T00:56:10;99223.59;;;10.61;100.00
60852;BME280;48553;50.766;2.900;2023-10-31T00:59:10;99227.88;;;10.59;100.00
60852;BME280;48553;50.766;2.900;2023-10-31T01:02:11;99242.34;;;10.59;100.00
60852;BME280;48553;50.766;2.900;2023-10-31T01:05:11;99237.22;;;10.58;100.00
60852;BME280;48553;50.766;2.900;2023-10-31T01:08:11;99247.41;;;10.57;100.00
60852;BME280;48553;50.766;2.900;2023-10-31T01:11:12;99247.41;;;10.57;100.00
60852;BME280;48553;50.766;2.900;2023-10-31T01:14:12;99242.28;;;10.56;100.00
60852;BME280;48553;50.766;2.900;2023-10-31T01:17:13;99236.78;;;10.52;100.00
60852;BME280;48553;50.766;2.900;2023-10-31T01:20:13;99245.00;;;10.52;100.00
60852;BME280;48553;50.766;2.900;2023-10-31T01:23:14;99238.31;;;10.50;100.00
60852;BME280;48553;50.766;2.900;2023-10-31T01:26:14;99243.00;;;10.49;100.00
60852;BME280;48553;50.766;2.900;2023-10-31T01:29:14;99252.00;;;10.50;100.00
60852;BME280;48553;50.766;2.900;2023-10-31T01:32:15;99256.22;;;10.43;100.00
60852;BME280;48553;50.766;2.900;2023-10-31T01:35:15;99251.94;;;10.42;100.00
60852;BME280;48553;50.766;2.900;2023-10-31T01:38:16;99247.59;;;10.41;100.00
60852;BME280;48553;50.766;2.900;2023-10-31T01:41:16;99249.13;;;10.39;100.00
60852;BME280;48553;50.766;2.900;2023-10-31T01:44:16;99257.34;;;10.39;100.00
60852;BME280;48553;50.766;2.900;2023-10-31T01:47:17;99253.81;;;10.38;100.00
60852;BME280;48553;50.766;2.900;2023-10-31T01:50:18;99242.09;;;10.38;100.00
60852;BME280;48553;50.766;2.900;2023-10-31T01:53:18;99253.03;;;10.38;100.00
60852;BME280;48553;50.766;2.900;2023-10-31T01:56:20;99250.66;;;10.36;100.00
60852;BME280;48553;50.766;2.900;2023-10-31T01:59:20;99254.53;;;10.35;100.00
60852;BME280;48553;50.766;2.900;2023-10-31T02:02:23;99253.72;;;10.31;100.00
60852;BME280;48553;50.766;2.900;2023-10-31T02:05:24;99261.94;;;10.31;99.95
60852;BME280;48553;50.766;2.900;2023-10-31T02:08:25;99253.31;;;10.29;99.88
60852;BME280;48553;50.766;2.900;2023-10-31T02:11:25;99250.91;;;10.28;99.91
60852;BME280;48553;50.766;2.900;2023-10-31T02:14:26;99251.25;;;10.26;99.53
60852;BME280;48553;50.766;2.900;2023-10-31T02:17:26;99258.69;;;10.25;99.23
60852;BME280;48553;50.766;2.900;2023-10-31T02:20:27;99250.06;;;10.23;99.36
60852;BME280;48553;50.766;2.900;2023-10-31T02:23:27;99256.72;;;10.22;99.27
60852;BME280;48553;50.766;2.900;2023-10-31T02:26:32;99251.94;;;10.19;99.18
60852;BME280;48553;50.766;2.900;2023-10-31T02:29:32;99251.94;;;10.19;99.04
60852;BME280;48553;50.766;2.900;2023-10-31T02:32:33;99255.09;;;10.18;99.25
60852;BME280;48553;50.766;2.900;2023-10-31T02:35:33;99252.69;;;10.16;98.83
60852;BME280;48553;50.766;2.900;2023-10-31T02:38:33;99247.59;;;10.15;98.60
60852;BME280;48553;50.766;2.900;2023-10-31T02:41:34;99258.94;;;10.13;98.66
60852;BME280;48553;50.766;2.900;2023-10-31T02:44:34;99255.34;;;10.09;98.63
60852;BME280;48553;50.766;2.900;2023-10-31T02:47:35;99271.41;;;10.11;98.63
60852;BME280;48553;50.766;2.900;2023-10-31T02:50:35;99267.06;;;10.10;98.74
60852;BME280;48553;50.766;2.900;2023-10-31T02:53:36;99270.59;;;10.10;98.72
60852;BME280;48553;50.766;2.900;2023-10-31T02:56:36;99261.97;;;10.08;98.92
60852;BME280;48553;50.766;2.900;2023-10-31T02:59:37;99266.28;;;10.09;98.96
60852;BME280;48553;50.766;2.900;2023-10-31T03:02:37;99272.91;;;10.08;98.99
60852;BME280;48553;50.766;2.900;2023-10-31T03:05:38;99272.91;;;10.08;99.13
60852;BME280;48553;50.766;2.900;2023-10-31T03:08:38;99258.84;;;10.06;99.41
60852;BME280;48553;50.766;2.900;2023-10-31T03:11:38;99275.25;;;10.06;99.80
60852;BME280;48553;50.766;2.900;2023-10-31T03:14:39;99270.56;;;10.07;99.68
60852;BME280;48553;50.766;2.900;2023-10-31T03:17:39;99278.38;;;10.08;99.83
60852;BME280;48553;50.766;2.900;2023-10-31T03:20:40;99280.34;;;10.08;99.91
60852;BME280;48553;50.766;2.900;2023-10-31T03:23:47;99278.81;;;10.10;100.00
60852;BME280;48553;50.766;2.900;2023-10-31T03:26:53;99277.25;;;10.09;100.00
60852;BME280;48553;50.766;2.900;2023-10-31T03:29:53;99283.50;;;10.10;99.90
60852;BME280;48553;50.766;2.900;2023-10-31T03:32:53;99289.72;;;10.07;99.96
60852;BME280;48553;50.766;2.900;2023-10-31T03:35:54;99298.28;;;10.05;99.95
60852;BME280;48553;50.766;2.900;2023-10-31T03:38:54;99301.81;;;10.06;99.83
60852;BME280;48553;50.766;2.900;2023-10-31T03:41:55;99303.00;;;10.04;99.52
60852;BME280;48553;50.766;2.900;2023-10-31T03:44:55;99311.56;;;10.03;99.62
60852;BME280;48553;50.766;2.900;2023-10-31T03:47:55;99308.03;;;10.02;99.56
60852;BME280;48553;50.766;2.900;2023-10-31T03:50:56;99299.81;;;10.02;99.30
60852;BME280;48553;50.766;2.900;2023-10-31T03:53:56;99320.16;;;10.01;99.26
60852;BME280;48553;50.766;2.900;2023-10-31T03:56:57;99318.91;;;9.99;99.32
60852;BME280;48553;50.766;2.900;2023-10-31T03:59:57;99330.69;;;9.99;99.34
60852;BME280;48553;50.766;2.900;2023-10-31T04:02:58;99320.88;;;9.98;99.17
60852;BME280;48553;50.766;2.900;2023-10-31T04:05:58;99331.38;;;9.96;99.27
60852;BME280;48553;50.766;2.900;2023-10-31T04:08:58;99330.97;;;9.94;99.36
60852;BME280;48553;50.766;2.900;2023-10-31T04:11:59;99337.59;;;9.93;99.47
60852;BME280;48553;50.766;2.900;2023-10-31T04:14:59;99336.00;;;9.92;99.54
60852;BME280;48553;50.766;2.900;2023-10-31T04:18:00;99344.59;;;9.91;99.39
60852;BME280;48553;50.766;2.900;2023-10-31T04:21:00;99350.06;;;9.91;99.69
60852;BME280;48553;50.766;2.900;2023-10-31T04:24:00;99356.25;;;9.88;99.50
60852;BME280;48553;50.766;2.900;2023-10-31T04:27:01;99355.91;;;9.89;99.41
60852;BME280;48553;50.766;2.900;2023-10-31T04:30:02;99366.06;;;9.89;99.30
60852;BME280;48553;50.766;2.900;2023-10-31T04:33:02;99360.25;;;9.90;99.38
60852;BME280;48553;50.766;2.900;2023-10-31T04:36:03;99362.56;;;9.88;99.55
60852;BME280;48553;50.766;2.900;2023-10-31T04:39:04;99369.59;;;9.89;99.42
60852;BME280;48553;50.766;2.900;2023-10-31T04:42:05;99365.72;;;9.90;99.98
60852;BME280;48553;50.766;2.900;2023-10-31T04:45:06;99372.31;;;9.89;100.00
60852;BME280;48553;50.766;2.900;2023-10-31T04:48:06;99368.44;;;9.90;100.00
60852;BME280;48553;50.766;2.900;2023-10-31T04:51:07;99371.19;;;9.90;100.00
60852;BME280;48553;50.766;2.900;2023-10-31T04:54:07;99375.13;;;9.93;100.00
60852;BME280;48553;50.766;2.900;2023-10-31T04:57:08;99382.53;;;9.92;100.00
60852;BME280;48553;50.766;2.900;2023-10-31T05:00:08;99383.34;;;9.93;100.00
60852;BME280;48553;50.766;2.900;2023-10-31T05:03:09;99375.13;;;9.93;100.00
60852;BME280;48553;50.766;2.900;2023-10-31T05:06:09;99370.81;;;9.92;100.00
60852;BME280;48553;50.766;2.900;2023-10-31T05:09:10;99376.28;;;9.92;100.00
60852;BME280;48553;50.766;2.900;2023-10-31T05:12:10;99377.88;;;9.93;100.00
60852;BME280;48553;50.766;2.900;2023-10-31T05:15:11;99389.16;;;9.91;100.00
60852;BME280;48553;50.766;2.900;2023-10-31T05:18:11;99391.97;;;9.95;100.00
60852;BME280;48553;50.766;2.900;2023-10-31T05:21:12;99389.59;;;9.93;100.00
60852;BME280;48553;50.766;2.900;2023-10-31T05:24:12;99388.44;;;9.94;100.00
60852;BME280;48553;50.766;2.900;2023-10-31T05:27:13;99391.16;;;9.94;100.00
60852;BME280;48553;50.766;2.900;2023-10-31T05:30:13;99392.78;;;9.95;100.00
60852;BME280;48553;50.766;2.900;2023-10-31T05:33:15;99389.28;;;9.98;100.00
60852;BME280;48553;50.766;2.900;2023-10-31T05:36:23;99397.50;;;9.98;100.00
60852;BME280;48553;50.766;2.900;2023-10-31T05:39:24;99396.28;;;9.96;100.00
60852;BME280;48553;50.766;2.900;2023-10-31T05:42:24;99393.13;;;9.94;100.00
60852;BME280;48553;50.766;2.900;2023-10-31T05:45:25;99399.81;;;9.96;100.00
60852;BME280;48553;50.766;2.900;2023-10-31T05:48:26;99416.19;;;9.93;100.00
60852;BME280;48553;50.766;2.900;2023-10-31T05:51:26;99413.81;;;9.91;100.00
60852;BME280;48553;50.766;2.900;2023-10-31T05:54:27;99412.63;;;9.92;100.00
60852;BME280;48553;50.766;2.900;2023-10-31T05:57:27;99407.13;;;9.89;100.00
60852;BME280;48553;50.766;2.900;2023-10-31T06:00:28;99405.16;;;9.89;100.00
60852;BME280;48553;50.766;2.900;2023-10-31T06:03:28;99398.91;;;9.89;100.00
60852;BME280;48553;50.766;2.900;2023-10-31T06:06:31;99399.25;;;9.87;100.00
60852;BME280;48553;50.766;2.900;2023-10-31T06:09:32;99400.78;;;9.85;100.00
60852;BME280;48553;50.766;2.900;2023-10-31T06:12:35;99411.72;;;9.85;100.00
60852;BME280;48553;50.766;2.900;2023-10-31T06:15:36;99410.50;;;9.82;100.00
60852;BME280;48553;50.766;2.900;2023-10-31T06:18:38;99398.41;;;9.83;100.00
60852;BME280;48553;50.766;2.900;2023-10-31T06:21:39;99397.19;;;9.80;99.76
60852;BME280;48553;50.766;2.900;2023-10-31T06:24:40;99413.16;;;9.78;100.00
60852;BME280;48553;50.766;2.900;2023-10-31T06:27:40;99405.78;;;9.79;100.00
60852;BME280;48553;50.766;2.900;2023-10-31T06:30:41;99408.88;;;9.77;99.67
60852;BME280;48553;50.766;2.900;2023-10-31T06:33:41;99414.00;;;9.79;99.34
60852;BME280;48553;50.766;2.900;2023-10-31T06:36:42;99414.69;;;9.76;99.40
60852;BME280;48553;50.766;2.900;2023-10-31T06:39:42;99410.38;;;9.75;99.58
60852;BME280;48553;50.766;2.900;2023-10-31T06:42:43;99424.44;;;9.73;99.37
60852;BME280;48553;50.766;2.900;2023-10-31T06:45:43;99429.47;;;9.71;99.14
60852;BME280;48553;50.766;2.900;2023-10-31T06:48:44;99438.84;;;9.70;99.00
60852;BME280;48553;50.766;2.900;2023-10-31T06:51:44;99436.09;;;9.70;99.09
60852;BME280;48553;50.766;2.900;2023-10-31T06:54:45;99438.75;;;9.67;99.14
60852;BME280;48553;50.766;2.900;2023-10-31T06:57:45;99449.69;;;9.67;99.15
60852;BME280;48553;50.766;2.900;2023-10-31T07:00:46;99444.19;;;9.63;98.78
60852;BME280;48553;50.766;2.900;2023-10-31T07:03:47;99452.81;;;9.65;98.89
60852;BME280;48553;50.766;2.900;2023-10-31T07:06:47;99460.22;;;9.65;99.06
60852;BME280;48553;50.766;2.900;2023-10-31T07:09:48;99456.69;;;9.64;99.05
60852;BME280;48553;50.766;2.900;2023-10-31T07:12:48;99448.56;;;9.68;98.66
60852;BME280;48553;50.766;2.900;2023-10-31T07:15:48;99454.47;;;9.70;98.45
60852;BME280;48553;50.766;2.900;2023-10-31T07:18:49;99471.66;;;9.70;98.58
60852;BME280;48553;50.766;2.900;2023-10-31T07:21:49;99471.06;;;9.80;98.35
60852;BME280;48553;50.766;2.900;2023-10-31T07:24:53;99479.56;;;9.95;97.35
60852;BME280;48553;50.766;2.900;2023-10-31T07:27:53;99483.66;;;10.04;96.67
60852;BME280;48553;50.766;2.900;2023-10-31T07:30:54;99490.69;;;10.06;97.07
60852;BME280;48553;50.766;2.900;2023-10-31T07:33:54;99490.13;;;9.96;97.53
60852;BME280;48553;50.766;2.900;2023-10-31T07:36:56;99499.75;;;10.10;97.33
60852;BME280;48553;50.766;2.900;2023-10-31T07:39:56;99500.69;;;10.17;96.84
60852;BME280;48553;50.766;2.900;2023-10-31T07:42:57;99503.09;;;9.99;98.09
60852;BME280;48553;50.766;2.900;2023-10-31T07:45:57;99495.47;;;9.89;98.70
60852;BME280;48553;50.766;2.900;2023-10-31T07:48:58;99507.94;;;9.87;99.15
60852;BME280;48553;50.766;2.900;2023-10-31T07:51:58;99502.03;;;9.85;99.31
60852;BME280;48553;50.766;2.900;2023-10-31T07:54:58;99512.91;;;9.81;99.70
60852;BME280;48553;50.766;2.900;2023-10-31T07:57:59;99510.53;;;9.79;99.89
60852;BME280;48553;50.766;2.900;2023-10-31T08:00:59;99510.59;;;9.83;99.85
60852;BME280;48553;50.766;2.900;2023-10-31T08:04:00;99519.19;;;9.81;100.00
60852;BME280;48553;50.766;2.900;2023-10-31T08:07:00;99517.97;;;9.79;100.00
60852;BME280;48553;50.766;2.900;2023-10-31T08:10:00;99527.75;;;9.80;100.00
60852;BME280;48553;50.766;2.900;2023-10-31T08:13:01;99519.09;;;9.78;100.00
60852;BME280;48553;50.766;2.900;2023-10-31T08:16:01;99522.28;;;9.80;100.00
60852;BME280;48553;50.766;2.900;2023-10-31T08:19:02;99534.72;;;9.77;100.00
60852;BME280;48553;50.766;2.900;2023-10-31T08:22:02;99530.47;;;9.80;100.00
60852;BME280;48553;50.766;2.900;2023-10-31T08:25:03;99543.00;;;9.81;100.00
60852;BME280;48553;50.766;2.900;2023-10-31T08:28:04;99541.41;;;9.80;100.00
60852;BME280;48553;50.766;2.900;2023-10-31T08:31:04;99542.16;;;9.77;100.00
60852;BME280;48553;50.766;2.900;2023-10-31T08:34:05;99553.16;;;9.80;100.00
60852;BME280;48553;50.766;2.900;2023-10-31T08:37:05;99545.31;;;9.79;100.00
60852;BME280;48553;50.766;2.900;2023-10-31T08:40:06;99564.47;;;9.79;100.00
60852;BME280;48553;50.766;2.900;2023-10-31T08:43:06;99560.56;;;9.80;100.00
60852;BME280;48553;50.766;2.900;2023-10-31T08:46:07;99573.53;;;9.83;100.00
60852;BME280;48553;50.766;2.900;2023-10-31T08:49:07;99559.84;;;9.83;100.00
60852;BME280;48553;50.766;2.900;2023-10-31T08:52:08;99571.22;;;9.85;100.00
60852;BME280;48553;50.766;2.900;2023-10-31T08:55:08;99567.34;;;9.86;100.00
60852;BME280;48553;50.766;2.900;2023-10-31T08:58:10;99573.63;;;9.87;100.00
60852;BME280;48553;50.766;2.900;2023-10-31T09:01:11;99570.88;;;9.87;100.00
60852;BME280;48553;50.766;2.900;2023-10-31T09:04:11;99569.34;;;9.89;100.00
60852;BME280;48553;50.766;2.900;2023-10-31T09:07:12;99568.22;;;9.90;100.00
60852;BME280;48553;50.766;2.900;2023-10-31T09:10:12;99570.59;;;9.92;100.00
60852;BME280;48553;50.766;2.900;2023-10-31T09:13:14;99569.06;;;9.94;100.00
60852;BME280;48553;50.766;2.900;2023-10-31T09:16:14;99576.84;;;9.92;100.00
60852;BME280;48553;50.766;2.900;2023-10-31T09:19:15;99572.63;;;9.95;100.00
60852;BME280;48553;50.766;2.900;2023-10-31T09:22:15;99578.50;;;9.97;100.00
60852;BME280;48553;50.766;2.900;2023-10-31T09:25:16;99578.50;;;9.97;100.00
60852;BME280;48553;50.766;2.900;2023-10-31T09:28:17;99578.16;;;9.98;100.00
60852;BME280;48553;50.766;2.900;2023-10-31T09:31:18;99577.78;;;10.00;100.00
60852;BME280;48553;50.766;2.900;2023-10-31T09:34:18;99578.22;;;10.02;100.00
60852;BME280;48553;50.766;2.900;2023-10-31T09:37:19;99582.91;;;10.01;100.00
60852;BME280;48553;50.766;2.900;2023-10-31T09:40:20;99577.84;;;10.03;100.00
60852;BME280;48553;50.766;2.900;2023-10-31T09:43:20;99568.94;;;10.07;100.00
60852;BME280;48553;50.766;2.900;2023-10-31T09:46:21;99573.63;;;10.06;100.00
60852;BME280;48553;50.766;2.900;2023-10-31T09:49:22;99575.19;;;10.07;100.00
60852;BME280;48553;50.766;2.900;2023-10-31T09:52:23;99586.56;;;10.09;100.00
60852;BME280;48553;50.766;2.900;2023-10-31T09:55:24;99595.94;;;10.08;100.00
60852;BME280;48553;50.766;2.900;2023-10-31T09:58:24;99594.78;;;10.09;100.00
60852;BME280;48553;50.766;2.900;2023-10-31T10:01:24;99592.06;;;10.09;100.00
60852;BME280;48553;50.766;2.900;2023-10-31T10:04:26;99599.09;;;10.10;100.00
60852;BME280;48553;50.766;2.900;2023-10-31T10:07:27;99597.19;;;10.11;100.00
60852;BME280;48553;50.766;2.900;2023-10-31T10:10:27;99598.75;;;10.12;100.00
60852;BME280;48553;50.766;2.900;2023-10-31T10:13:29;99597.97;;;10.11;100.00
60852;BME280;48553;50.766;2.900;2023-10-31T10:16:31;99600.31;;;10.13;100.00
60852;BME280;48553;50.766;2.900;2023-10-31T10:19:31;99600.31;;;10.13;100.00
60852;BME280;48553;50.766;2.900;2023-10-31T10:22:32;99597.59;;;10.13;100.00
60852;BME280;48553;50.766;2.900;2023-10-31T10:25:32;99598.41;;;10.13;100.00
60852;BME280;48553;50.766;2.900;2023-10-31T10:28:33;99594.84;;;10.13;100.00
60852;BME280;48553;50.766;2.900;2023-10-31T10:31:33;99585.16;;;10.15;100.00
60852;BME280;48553;50.766;2.900;2023-10-31T10:34:34;99573.38;;;10.15;100.00
60852;BME280;48553;50.766;2.900;2023-10-31T10:37:37;99563.25;;;10.15;100.00
60852;BME280;48553;50.766;2.900;2023-10-31T10:40:43;99559.34;;;10.16;100.00
60852;BME280;48553;50.766;2.900;2023-10-31T10:43:44;99533.56;;;10.17;100.00
60852;BME280;48553;50.766;2.900;2023-10-31T10:46:50;99534.38;;;10.21;100.00
60852;BME280;48553;50.766;2.900;2023-10-31T10:49:54;99523.81;;;10.20;100.00
60852;BME280;48553;50.766;2.900;2023-10-31T10:53:09;99523.09;;;10.23;100.00
60852;BME280;48553;50.766;2.900;2023-10-31T10:56:39;99538.00;;;10.25;100.00
60852;BME280;48553;50.766;2.900;2023-10-31T10:59:45;99529.78;;;10.25;100.00
60852;BME280;48553;50.766;2.900;2023-10-31T11:02:49;99518.13;;;10.29;100.00
60852;BME280;48553;50.766;2.900;2023-10-31T11:05:52;99537.38;;;10.32;100.00
60852;BME280;48553;50.766;2.900;2023-10-31T11:08:53;99556.53;;;10.32;100.00
60852;BME280;48553;50.766;2.900;2023-10-31T11:11:55;99566.75;;;10.35;100.00
60852;BME280;48553;50.766;2.900;2023-10-31T11:15:00;99558.19;;;10.37;100.00
60852;BME280;48553;50.766;2.900;2023-10-31T11:18:03;99560.91;;;10.37;100.00
60852;BME280;48553;50.766;2.900;2023-10-31T11:21:04;99566.81;;;10.39;100.00
60852;BME280;48553;50.766;2.900;2023-10-31T11:24:04;99565.66;;;10.40;100.00
60852;BME280;48553;50.766;2.900;2023-10-31T11:27:06;99579.78;;;10.42;100.00
60852;BME280;48553;50.766;2.900;2023-10-31T11:30:08;99585.69;;;10.44;100.00
60852;BME280;48553;50.766;2.900;2023-10-31T11:33:14;99591.69;;;10.50;100.00
60852;BME280;48553;50.766;2.900;2023-10-31T11:36:15;99590.72;;;10.61;100.00
60852;BME280;48553;50.766;2.900;2023-10-31T11:39:19;99593.25;;;10.74;100.00
60852;BME280;48553;50.766;2.900;2023-10-31T11:42:27;99607.91;;;10.81;100.00
60852;BME280;48553;50.766;2.900;2023-10-31T11:48:50;99612.03;;;10.95;100.00
60852;BME280;48553;50.766;2.900;2023-10-31T11:51:51;99613.59;;;10.96;100.00
60852;BME280;48553;50.766;2.900;2023-10-31T11:54:53;99619.63;;;11.05;100.00
60852;BME280;48553;50.766;2.900;2023-10-31T11:57:53;99617.44;;;11.14;100.00
60852;BME280;48553;50.766;2.900;2023-10-31T12:01:04;99608.88;;;11.19;100.00
60852;BME280;48553;50.766;2.900;2023-10-31T12:04:05;99605.09;;;11.27;100.00
60852;BME280;48553;50.766;2.900;2023-10-31T12:07:05;99611.47;;;11.35;100.00
60852;BME280;48553;50.766;2.900;2023-10-31T12:10:06;99611.88;;;11.34;100.00
60852;BME280;48553;50.766;2.900;2023-10-31T12:13:12;99616.94;;;11.32;100.00
60852;BME280;48553;50.766;2.900;2023-10-31T12:16:13;99620.03;;;11.30;100.00
60852;BME280;48553;50.766;2.900;2023-10-31T12:19:13;99615.28;;;11.27;100.00
60852;BME280;48553;50.766;2.900;2023-10-31T12:22:14;99617.66;;;11.28;100.00
60852;BME280;48553;50.766;2.900;2023-10-31T12:25:15;99618.47;;;11.29;100.00
60852;BME280;48553;50.766;2.900;2023-10-31T12:28:19;99628.38;;;11.37;100.00
60852;BME280;48553;50.766;2.900;2023-10-31T12:31:20;99626.44;;;11.38;100.00
60852;BME280;48553;50.766;2.900;2023-10-31T12:34:22;99622.19;;;11.44;100.00
60852;BME280;48553;50.766;2.900;2023-10-31T12:37:23;99616.78;;;11.47;100.00
60852;BME280;48553;50.766;2.900;2023-10-31T12:40:24;99619.94;;;11.49;100.00
60852;BME280;48553;50.766;2.900;2023-10-31T12:43:25;99632.06;;;11.48;100.00
60852;BME280;48553;50.766;2.900;2023-10-31T12:46:32;99631.38;;;11.55;100.00
60852;BME280;48553;50.766;2.900;2023-10-31T12:49:32;99631.81;;;11.57;100.00
60852;BME280;48553;50.766;2.900;2023-10-31T12:52:50;99628.72;;;11.62;100.00
60852;BME280;48553;50.766;2.900;2023-10-31T12:55:53;99634.38;;;11.73;100.00
60852;BME280;48553;50.766;2.900;2023-10-31T12:58:57;99632.41;;;11.74;100.00
60852;BME280;48553;50.766;2.900;2023-10-31T13:01:59;99638.97;;;11.92;100.00
60852;BME280;48553;50.766;2.900;2023-10-31T13:05:13;99638.25;;;11.95;100.00
60852;BME280;48553;50.766;2.900;2023-10-31T13:08:15;99632.78;;;11.99;100.00
60852;BME280;48553;50.766;2.900;2023-10-31T13:11:16;99630.03;;;11.99;100.00
60852;BME280;48553;50.766;2.900;2023-10-31T13:14:16;99636.38;;;12.03;100.00
60852;BME280;48553;50.766;2.900;2023-10-31T13:17:17;99646.22;;;12.07;100.00
60852;BME280;48553;50.766;2.900;2023-10-31T13:20:21;99643.47;;;12.04;100.00
60852;BME280;48553;50.766;2.900;2023-10-31T13:23:21;99643.06;;;12.05;100.00
60852;BME280;48553;50.766;2.900;2023-10-31T13:26:22;99641.50;;;12.04;100.00
60852;BME280;48553;50.766;2.900;2023-10-31T13:29:22;99642.66;;;12.03;100.00
60852;BME280;48553;50.766;2.900;2023-10-31T13:32:25;99643.88;;;12.06;100.00
60852;BME280;48553;50.766;2.900;2023-10-31T13:35:25;99627.50;;;12.13;100.00
60852;BME280;48553;50.766;2.900;2023-10-31T13:38:26;99625.59;;;12.21;100.00
60852;BME280;48553;50.766;2.900;2023-10-31T13:41:26;99625.25;;;12.26;100.00
60852;BME280;48553;50.766;2.900;2023-10-31T13:44:27;99624.53;;;12.29;100.00
60852;BME280;48553;50.766;2.900;2023-10-31T13:47:28;99629.22;;;12.28;100.00
60852;BME280;48553;50.766;2.900;2023-10-31T13:50:30;99629.94;;;12.22;100.00
60852;BME280;48553;50.766;2.900;2023-10-31T13:53:30;99640.09;;;12.18;100.00
60852;BME280;48553;50.766;2.900;2023-10-31T13:56:30;99629.84;;;12.15;100.00
60852;BME280;48553;50.766;2.900;2023-10-31T13:59:31;99629.38;;;12.09;100.00
60852;BME280;48553;50.766;2.900;2023-10-31T14:02:31;99624.59;;;12.02;100.00
60852;BME280;48553;50.766;2.900;2023-10-31T14:05:32;99632.78;;;11.99;100.00
60852;BME280;48553;50.766;2.900;2023-10-31T14:08:32;99625.66;;;11.94;100.00
60852;BME280;48553;50.766;2.900;2023-10-31T14:11:33;99628.75;;;11.89;100.00
60852;BME280;48553;50.766;2.900;2023-10-31T14:14:34;99631.03;;;11.87;100.00
60852;BME280;48553;50.766;2.900;2023-10-31T14:17:34;99644.34;;;11.85;100.00
60852;BME280;48553;50.766;2.900;2023-10-31T14:20:35;99641.16;;;11.83;100.00
60852;BME280;48553;50.766;2.900;2023-10-31T14:23:35;99630.56;;;11.81;100.00
60852;BME280;48553;50.766;2.900;2023-10-31T14:26:35;99637.59;;;11.79;100.00
60852;BME280;48553;50.766;2.900;2023-10-31T14:29:37;99649.31;;;11.76;100.00
60852;BME280;48553;50.766;2.900;2023-10-31T14:32:37;99645.00;;;11.75;100.00
60852;BME280;48553;50.766;2.900;2023-10-31T14:35:38;99652.81;;;11.73;100.00
60852;BME280;48553;50.766;2.900;2023-10-31T14:38:39;99648.47;;;11.71;100.00
60852;BME280;48553;50.766;2.900;2023-10-31T14:41:39;99653.94;;;11.71;100.00
60852;BME280;48553;50.766;2.900;2023-10-31T14:44:40;99654.34;;;11.70;100.00
60852;BME280;48553;50.766;2.900;2023-10-31T14:47:40;99635.13;;;11.70;100.00
60852;BME280;48553;50.766;2.900;2023-10-31T14:50:41;99644.50;;;11.69;100.00
60852;BME280;48553;50.766;2.900;2023-10-31T14:53:41;99651.97;;;11.68;100.00
60852;BME280;48553;50.766;2.900;2023-10-31T14:56:41;99646.03;;;11.66;100.00
60852;BME280;48553;50.766;2.900;2023-10-31T14:59:42;99648.78;;;11.66;100.00
60852;BME280;48553;50.766;2.900;2023-10-31T15:02:42;99656.25;;;11.66;100.00
60852;BME280;48553;50.766;2.900;2023-10-31T15:05:43;99646.41;;;11.65;100.00
60852;BME280;48553;50.766;2.900;2023-10-31T15:08:43;99667.56;;;11.64;100.00
60852;BME280;48553;50.766;2.900;2023-10-31T15:11:44;99665.22;;;11.63;100.00
60852;BME280;48553;50.766;2.900;2023-10-31T15:14:44;99675.38;;;11.62;100.00
60852;BME280;48553;50.766;2.900;2023-10-31T15:17:45;99672.22;;;11.60;100.00
60852;BME280;48553;50.766;2.900;2023-10-31T15:20:45;99693.44;;;11.63;100.00
60852;BME280;48553;50.766;2.900;2023-10-31T15:23:46;99678.94;;;11.63;100.00
60852;BME280;48553;50.766;2.900;2023-10-31T15:26:46;99686.38;;;11.62;100.00
60852;BME280;48553;50.766;2.900;2023-10-31T15:29:47;99673.75;;;11.58;100.00
60852;BME280;48553;50.766;2.900;2023-10-31T15:32:47;99687.03;;;11.56;100.00
60852;BME280;48553;50.766;2.900;2023-10-31T15:35:48;99684.69;;;11.54;100.00
60852;BME280;48553;50.766;2.900;2023-10-31T15:38:48;99684.25;;;11.52;100.00
60852;BME280;48553;50.766;2.900;2023-10-31T15:41:50;99682.31;;;11.53;100.00
60852;BME280;48553;50.766;2.900;2023-10-31T15:44:51;99684.19;;;11.48;100.00
60852;BME280;48553;50.766;2.900;2023-10-31T15:47:51;99679.13;;;11.50;100.00
60852;BME280;48553;50.766;2.900;2023-10-31T15:50:52;99685.78;;;11.49;100.00
60852;BME280;48553;50.766;2.900;2023-10-31T15:53:52;99686.94;;;11.48;100.00
60852;BME280;48553;50.766;2.900;2023-10-31T15:56:52;99682.63;;;11.47;100.00